createdAt,value
2022-11-22T00:00:50.148Z,-3.12
2022-11-22T00:03:18.000Z,-3.08
2022-11-22T00:05:45.505Z,-3.05
2022-11-22T00:08:12.994Z,-3.05
2022-11-22T00:10:40.533Z,-3.04
2022-11-22T00:13:08.017Z,-2.99
2022-11-22T00:15:35.612Z,-3.03
2022-11-22T00:18:02.967Z,-2.95
2022-11-22T00:20:30.464Z,-2.99
2022-11-22T00:22:58.582Z,-2.95
2022-11-22T00:25:26.546Z,-2.91
2022-11-22T00:27:54.532Z,-2.88
2022-11-22T00:30:21.973Z,-2.88
2022-11-22T00:32:49.357Z,-2.86
2022-11-22T00:35:16.879Z,-2.84
2022-11-22T00:37:44.229Z,-2.77
2022-11-22T00:40:12.069Z,-2.76
2022-11-22T00:42:40.145Z,-2.80
2022-11-22T00:45:08.155Z,-2.81
2022-11-22T00:47:35.539Z,-2.78
2022-11-22T00:50:02.975Z,-2.80
2022-11-22T00:52:31.184Z,-2.79
2022-11-22T00:54:58.640Z,-2.86
2022-11-22T00:57:25.956Z,-2.83
2022-11-22T00:59:53.374Z,-2.80
2022-11-22T01:02:20.831Z,-2.78
2022-11-22T01:04:48.175Z,-2.77
2022-11-22T01:07:15.618Z,-2.79
2022-11-22T01:09:43.032Z,-2.77
2022-11-22T01:12:10.544Z,-2.84
2022-11-22T01:14:37.906Z,-2.79
2022-11-22T01:17:05.367Z,-2.76
2022-11-22T01:19:33.061Z,-2.74
2022-11-22T01:22:00.529Z,-2.70
2022-11-22T01:24:27.893Z,-2.68
2022-11-22T01:26:55.622Z,-2.72
2022-11-22T01:29:23.050Z,-2.78
2022-11-22T01:31:50.448Z,-2.74
2022-11-22T01:34:17.814Z,-2.74
2022-11-22T01:36:45.263Z,-2.72
2022-11-22T01:39:12.866Z,-2.70
2022-11-22T01:41:40.244Z,-2.71
2022-11-22T01:44:39.933Z,-2.56
2022-11-22T01:47:14.252Z,-2.54
2022-11-22T01:49:48.467Z,-2.52
2022-11-22T01:52:22.072Z,-2.50
2022-11-22T01:55:13.588Z,-2.49
2022-11-22T01:57:43.637Z,-2.54
2022-11-22T02:00:14.966Z,-2.51
2022-11-22T02:02:50.177Z,-2.52
2022-11-22T02:05:22.021Z,-2.51
2022-11-22T02:08:33.798Z,-2.43
2022-11-22T02:11:03.946Z,-2.49
2022-11-22T02:13:35.162Z,-2.50
2022-11-22T02:16:03.718Z,-2.51
2022-11-22T02:18:32.355Z,-2.55
2022-11-22T02:21:00.164Z,-2.52
2022-11-22T02:23:50.295Z,-2.44
2022-11-22T02:26:18.108Z,-2.52
2022-11-22T02:28:45.843Z,-2.50
2022-11-22T02:31:39.713Z,-2.40
2022-11-22T02:34:07.628Z,-2.49
2022-11-22T02:36:40.001Z,-2.45
2022-11-22T02:39:09.460Z,-2.50
2022-11-22T02:41:38.122Z,-2.46
2022-11-22T02:44:07.942Z,-2.42
2022-11-22T02:46:35.388Z,-2.44
2022-11-22T02:49:02.840Z,-2.43
2022-11-22T02:51:30.440Z,-2.46
2022-11-22T02:53:57.981Z,-2.40
2022-11-22T02:56:25.412Z,-2.39
2022-11-22T02:58:52.743Z,-2.40
2022-11-22T03:01:20.158Z,-2.38
2022-11-22T03:03:47.676Z,-2.38
2022-11-22T03:06:14.973Z,-2.38
2022-11-22T03:08:42.454Z,-2.36
2022-11-22T03:11:09.953Z,-2.34
2022-11-22T03:13:38.777Z,-2.33
2022-11-22T03:16:06.315Z,-2.32
2022-11-22T03:18:35.069Z,-2.26
2022-11-22T03:21:04.035Z,-2.25
2022-11-22T03:23:31.699Z,-2.28
2022-11-22T03:26:00.009Z,-2.25
2022-11-22T03:28:27.395Z,-2.24
2022-11-22T03:30:54.854Z,-2.26
2022-11-22T03:33:22.204Z,-2.31
2022-11-22T03:35:49.601Z,-2.28
2022-11-22T03:38:17.017Z,-2.24
2022-11-22T03:40:47.174Z,-2.20
2022-11-22T03:43:14.591Z,-2.22
2022-11-22T03:45:48.705Z,-2.16
2022-11-22T03:48:16.204Z,-2.26
2022-11-22T03:50:43.802Z,-2.25
2022-11-22T03:53:11.709Z,-2.26
2022-11-22T03:55:39.426Z,-2.26
2022-11-22T03:58:07.177Z,-2.24
2022-11-22T04:00:35.172Z,-2.26
2022-11-22T04:03:02.624Z,-2.24
2022-11-22T04:05:29.989Z,-2.25
2022-11-22T04:08:00.011Z,-2.27
2022-11-22T04:10:27.548Z,-2.27
2022-11-22T04:12:59.588Z,-2.18
2022-11-22T04:15:27.754Z,-2.24
2022-11-22T04:17:55.431Z,-2.20
2022-11-22T04:20:46.591Z,-2.17
2022-11-22T04:23:19.633Z,-2.13
2022-11-22T04:25:50.600Z,-2.13
2022-11-22T04:28:20.280Z,-2.11
2022-11-22T04:31:07.356Z,-2.12
2022-11-22T04:33:35.652Z,-2.10
2022-11-22T04:36:19.026Z,-2.08
2022-11-22T04:38:46.383Z,-1.86
2022-11-22T04:41:22.122Z,-1.96
2022-11-22T04:44:08.872Z,-2.01
2022-11-22T04:46:36.556Z,-1.93
2022-11-22T04:49:04.369Z,-1.90
2022-11-22T04:51:53.152Z,-1.94
2022-11-22T04:54:26.084Z,-1.84
2022-11-22T04:56:55.592Z,-1.83
2022-11-22T04:59:23.612Z,-1.89
2022-11-22T05:01:53.132Z,-1.71
2022-11-22T05:04:20.901Z,-1.71
2022-11-22T05:06:52.053Z,-1.69
2022-11-22T05:09:29.154Z,-1.63
2022-11-22T05:11:58.262Z,-1.77
2022-11-22T05:14:25.904Z,-1.59
2022-11-22T05:16:53.213Z,-1.51
2022-11-22T05:19:20.496Z,-1.51
2022-11-22T05:21:47.917Z,-1.46
2022-11-22T05:24:15.312Z,-1.42
2022-11-22T05:26:43.003Z,-1.35
2022-11-22T05:29:11.022Z,-1.28
2022-11-22T05:31:40.173Z,-1.20
2022-11-22T05:34:07.806Z,-1.17
2022-11-22T05:36:35.887Z,-1.10
2022-11-22T05:39:04.351Z,-1.05
2022-11-22T05:41:31.747Z,-0.98
2022-11-22T05:43:59.459Z,-0.96
2022-11-22T05:46:29.080Z,-0.93
2022-11-22T05:48:58.070Z,-0.89
2022-11-22T05:51:32.520Z,-0.87
2022-11-22T05:54:02.040Z,-0.82
2022-11-22T05:56:29.487Z,-0.85
2022-11-22T05:58:56.906Z,-0.81
2022-11-22T06:01:25.201Z,-0.73
2022-11-22T06:03:53.273Z,-0.74
2022-11-22T06:06:20.943Z,-0.64
2022-11-22T06:08:48.843Z,-0.56
2022-11-22T06:11:18.824Z,-0.50
2022-11-22T06:13:47.798Z,-0.44
2022-11-22T06:16:15.996Z,-0.40
2022-11-22T06:18:44.054Z,-0.36
2022-11-22T06:21:14.440Z,-0.31
2022-11-22T06:23:42.497Z,-0.26
2022-11-22T06:26:15.096Z,-0.19
2022-11-22T06:28:43.326Z,-0.08
2022-11-22T06:31:16.319Z,-0.04
2022-11-22T06:33:44.902Z,0.05
2022-11-22T06:36:18.198Z,0.14
2022-11-22T06:38:46.541Z,0.21
2022-11-22T06:41:19.583Z,0.25
2022-11-22T06:43:49.823Z,0.30
2022-11-22T06:46:19.665Z,0.38
2022-11-22T06:48:47.842Z,0.42
2022-11-22T06:51:24.258Z,0.47
2022-11-22T06:53:53.064Z,0.47
2022-11-22T06:56:21.936Z,0.49
2022-11-22T06:58:51.116Z,0.47
2022-11-22T07:01:21.301Z,0.51
2022-11-22T07:03:49.757Z,0.53
2022-11-22T07:06:19.017Z,0.56
2022-11-22T07:08:46.998Z,0.60
2022-11-22T07:11:17.502Z,0.63
2022-11-22T07:13:45.541Z,0.68
2022-11-22T07:16:15.179Z,0.77
2022-11-22T07:18:42.747Z,0.81
2022-11-22T07:21:13.436Z,0.89
2022-11-22T07:23:42.945Z,0.95
2022-11-22T07:26:11.309Z,1.01
2022-11-22T07:28:39.396Z,1.09
2022-11-22T07:31:08.971Z,1.19
2022-11-22T07:33:36.645Z,1.25
2022-11-22T07:36:12.153Z,1.30
2022-11-22T07:38:39.786Z,1.33
2022-11-22T07:41:08.439Z,1.40
2022-11-22T07:43:36.226Z,1.46
2022-11-22T07:46:11.960Z,1.51
2022-11-22T07:48:39.452Z,1.56
2022-11-22T07:51:07.795Z,1.61
2022-11-22T07:53:35.825Z,1.49
2022-11-22T07:56:07.022Z,1.71
2022-11-22T07:58:35.057Z,1.70
2022-11-22T08:01:21.783Z,1.82
2022-11-22T08:03:49.410Z,1.77
2022-11-22T08:06:16.861Z,1.78
2022-11-22T08:08:44.760Z,1.79
2022-11-22T08:11:12.731Z,1.80
2022-11-22T08:13:40.511Z,1.80
2022-11-22T08:16:11.399Z,1.81
2022-11-22T08:18:39.643Z,1.76
2022-11-22T08:21:11.752Z,1.73
2022-11-22T08:23:39.973Z,1.72
2022-11-22T08:26:10.063Z,1.70
2022-11-22T08:28:37.443Z,1.59
2022-11-22T08:31:16.969Z,1.63
2022-11-22T08:33:44.409Z,1.46
2022-11-22T08:36:12.220Z,1.51
2022-11-22T08:38:39.950Z,1.47
2022-11-22T08:41:07.477Z,1.42
2022-11-22T08:43:35.131Z,1.39
2022-11-22T08:46:04.218Z,1.35
2022-11-22T08:48:33.737Z,1.35
2022-11-22T08:51:06.820Z,1.39
2022-11-22T08:53:35.664Z,1.35
2022-11-22T08:56:04.526Z,1.33
2022-11-22T08:58:34.858Z,1.32
2022-11-22T09:01:06.393Z,1.35
2022-11-22T09:03:37.482Z,1.34
2022-11-22T09:09:22.576Z,1.20
2022-11-22T09:11:48.134Z,1.12
2022-11-22T09:14:15.627Z,1.13
2022-11-22T09:16:42.993Z,1.10
2022-11-22T09:19:10.433Z,1.03
2022-11-22T09:21:37.780Z,1.01
2022-11-22T09:24:05.596Z,1.00
2022-11-22T09:26:33.341Z,0.97
2022-11-22T09:29:00.831Z,0.94
2022-11-22T09:31:28.186Z,0.92
2022-11-22T09:33:55.596Z,0.89
2022-11-22T09:36:28.140Z,0.92
2022-11-22T09:39:10.630Z,0.85
2022-11-22T09:42:06.370Z,0.98
2022-11-22T09:44:43.394Z,0.89
2022-11-22T09:47:29.685Z,0.79
2022-11-22T09:50:31.114Z,0.88
2022-11-22T09:53:17.271Z,0.86
2022-11-22T09:56:10.150Z,0.80
2022-11-22T09:58:59.847Z,0.76
2022-11-22T10:01:33.570Z,0.60
2022-11-22T10:04:11.114Z,0.61
2022-11-22T10:06:44.435Z,0.44
2022-11-22T10:09:33.075Z,0.50
2022-11-22T10:12:23.453Z,0.39
2022-11-22T10:15:09.163Z,0.26
2022-11-22T10:17:56.104Z,0.06
2022-11-22T10:20:49.878Z,0.05
2022-11-22T10:23:21.663Z,-0.15
2022-11-22T10:26:02.230Z,-0.18
2022-11-22T10:28:58.046Z,-0.23
2022-11-22T10:32:06.905Z,-0.34
2022-11-22T10:35:25.242Z,-0.42
2022-11-22T10:38:10.030Z,-0.53
2022-11-22T10:40:44.111Z,-0.78
2022-11-22T10:43:46.741Z,-0.72
2022-11-22T10:46:23.571Z,-0.93
2022-11-22T10:49:33.461Z,-0.88
2022-11-22T10:52:29.877Z,-0.97
2022-11-22T10:55:22.808Z,-1.05
2022-11-22T10:58:03.933Z,-1.15
2022-11-22T11:00:33.898Z,-1.38
2022-11-22T11:03:13.587Z,-1.31
2022-11-22T11:06:26.702Z,-1.38
2022-11-22T11:12:39.727Z,-1.44
2022-11-22T11:15:21.109Z,-1.50
2022-11-22T11:17:58.856Z,-1.77
2022-11-22T11:20:38.040Z,-1.65
2022-11-22T11:23:16.507Z,-1.83
2022-11-22T11:25:54.733Z,-1.85
2022-11-22T11:28:24.889Z,-1.96
2022-11-22T11:31:10.545Z,-1.90
2022-11-22T11:33:39.850Z,-2.03
2022-11-22T11:36:23.861Z,-2.00
2022-11-22T11:38:57.570Z,-2.03
2022-11-22T11:41:42.093Z,-2.02
2022-11-22T11:44:37.158Z,-2.05
2022-11-22T11:47:05.365Z,-2.24
2022-11-22T11:49:34.884Z,-2.24
2022-11-22T11:52:05.611Z,-2.28
2022-11-22T11:54:32.911Z,-2.34
2022-11-22T11:57:05.525Z,-2.34
2022-11-22T11:59:38.677Z,-2.34
2022-11-22T12:02:14.942Z,-2.37
2022-11-22T12:05:27.346Z,-2.37
2022-11-22T12:07:54.830Z,-2.57
2022-11-22T12:10:47.915Z,-2.51
2022-11-22T12:13:21.386Z,-2.37
2022-11-22T12:16:01.828Z,-2.51
2022-11-22T12:18:44.467Z,-2.60
2022-11-22T12:21:26.831Z,-2.67
2022-11-22T12:24:42.755Z,-2.77
2022-11-22T12:27:00.318Z,-2.83
2022-11-22T12:29:28.469Z,-2.85
2022-11-22T12:32:17.243Z,-2.78
2022-11-22T12:35:00.564Z,-2.80
2022-11-22T12:37:44.492Z,-3.00
2022-11-22T12:40:18.926Z,-2.90
2022-11-22T12:43:01.132Z,-2.93
2022-11-22T12:45:40.899Z,-2.96
2022-11-22T12:48:29.465Z,-2.97
2022-11-22T12:51:20.901Z,-3.03
2022-11-22T12:53:49.364Z,-3.30
2022-11-22T12:56:33.366Z,-3.08
2022-11-22T12:59:04.263Z,-3.15
2022-11-22T13:01:37.859Z,-3.11
2022-11-22T13:04:11.497Z,-3.13
2022-11-22T13:07:01.984Z,-3.16
2022-11-22T13:09:33.776Z,-3.23
2022-11-22T13:12:10.214Z,-3.24
2022-11-22T13:14:47.940Z,-3.29
2022-11-22T13:17:18.401Z,-3.40
2022-11-22T13:20:06.456Z,-3.22
2022-11-22T13:22:52.819Z,-3.21
2022-11-22T13:25:45.801Z,-3.22
2022-11-22T13:28:15.998Z,-3.14
2022-11-22T13:31:09.466Z,-3.23
2022-11-22T13:33:56.940Z,-3.30
2022-11-22T13:36:27.633Z,-3.36
2022-11-22T13:38:58.103Z,-3.45
2022-11-22T13:41:36.872Z,-3.45
2022-11-22T13:44:22.734Z,-3.41
2022-11-22T13:46:50.230Z,-3.54
2022-11-22T13:49:54.174Z,-3.47
2022-11-22T13:52:21.546Z,-3.57
2022-11-22T13:54:48.924Z,-3.62
2022-11-22T13:57:28.180Z,-3.58
2022-11-22T14:00:17.030Z,-3.54
2022-11-22T14:02:46.160Z,-3.66
2022-11-22T14:05:35.337Z,-3.57
2022-11-22T14:08:06.540Z,-3.68
2022-11-22T14:10:38.015Z,-3.71
2022-11-22T14:13:36.298Z,-3.74
2022-11-22T14:16:17.718Z,-3.76
2022-11-22T14:19:11.090Z,-3.78
2022-11-22T14:22:10.176Z,-3.75
2022-11-22T14:25:10.515Z,-3.89
2022-11-22T14:27:52.145Z,-4.19
2022-11-22T14:30:40.581Z,-4.09
2022-11-22T14:33:17.704Z,-3.91
2022-11-22T14:36:07.067Z,-3.91
2022-11-22T14:38:35.678Z,-4.02
2022-11-22T14:41:31.237Z,-4.00
2022-11-22T14:44:08.967Z,-4.03
2022-11-22T14:46:56.036Z,-4.11
2022-11-22T14:49:32.128Z,-4.15
2022-11-22T14:52:00.535Z,-4.19
2022-11-22T14:54:43.544Z,-4.17
2022-11-22T14:57:18.855Z,-4.36
2022-11-22T15:00:15.261Z,-4.21
2022-11-22T15:03:05.499Z,-4.21
2022-11-22T15:09:11.679Z,-4.37
2022-11-22T15:09:13.540Z,-4.31
2022-11-22T15:12:04.462Z,-4.37
2022-11-22T15:57:47.186Z,-4.54
2022-11-22T16:00:29.072Z,-4.54
2022-11-22T16:03:01.885Z,-4.58
2022-11-22T16:06:05.265Z,-4.56
2022-11-22T16:08:31.060Z,-4.71
2022-11-22T16:11:06.408Z,-4.66
2022-11-22T16:13:36.945Z,-4.69
2022-11-22T16:16:13.841Z,-4.57
2022-11-22T16:18:43.066Z,-4.67
2022-11-22T16:21:10.924Z,-4.73
2022-11-22T16:23:40.394Z,-4.72
2022-11-22T16:26:15.124Z,-4.68
2022-11-22T16:28:42.630Z,-4.75
2022-11-22T16:31:31.944Z,-4.69
2022-11-22T16:34:00.007Z,-4.79
2022-11-22T16:36:30.305Z,-4.76
2022-11-22T16:38:58.075Z,-4.86
2022-11-22T16:41:27.631Z,-4.95
2022-11-22T16:44:00.718Z,-4.87
2022-11-22T16:46:32.178Z,-4.87
2022-11-22T16:48:59.661Z,-4.95
2022-11-22T16:51:48.848Z,-4.99
2022-11-22T16:54:25.263Z,-4.94
2022-11-22T16:56:52.979Z,-4.99
2022-11-22T16:59:21.632Z,-5.03
2022-11-22T17:01:56.359Z,-5.07
2022-11-22T17:04:28.550Z,-5.07
2022-11-22T17:06:56.095Z,-5.18
2022-11-22T17:09:23.513Z,-5.14
2022-11-22T17:11:51.200Z,-5.11
2022-11-22T17:14:19.747Z,-5.12
2022-11-22T17:16:47.476Z,-5.14
2022-11-22T17:19:37.572Z,-5.15
2022-11-22T17:22:02.467Z,-5.16
2022-11-22T17:24:30.255Z,-5.17
2022-11-22T17:26:58.039Z,-5.16
2022-11-22T17:29:55.555Z,-5.17
2022-11-22T17:32:13.972Z,-5.16
2022-11-22T17:34:42.557Z,-5.14
2022-11-22T17:37:14.009Z,-5.13
2022-11-22T17:39:42.092Z,-5.20
2022-11-22T17:42:09.585Z,-5.24
2022-11-22T17:44:36.941Z,-5.35
2022-11-22T17:47:04.911Z,-5.29
2022-11-22T17:49:32.755Z,-5.29
2022-11-22T17:52:28.235Z,-5.18
2022-11-22T17:54:58.363Z,-5.32
2022-11-22T17:57:31.848Z,-5.32
2022-11-22T17:59:59.330Z,-5.40
2022-11-22T18:02:27.299Z,-5.35
2022-11-22T18:04:59.370Z,-5.36
2022-11-22T18:07:33.403Z,-5.34
2022-11-22T18:10:02.074Z,-5.23
2022-11-22T18:12:31.114Z,-5.30
2022-11-22T18:14:58.570Z,-5.23
2022-11-22T18:17:27.580Z,-5.29
2022-11-22T18:19:54.947Z,-5.31
2022-11-22T18:22:22.522Z,-5.32
2022-11-22T18:24:50.009Z,-5.34
2022-11-22T18:27:17.825Z,-5.54
2022-11-22T18:29:45.375Z,-5.36
2022-11-22T18:32:12.907Z,-5.43
2022-11-22T18:34:41.746Z,-5.36
2022-11-22T18:37:13.224Z,-5.35
2022-11-22T18:40:08.196Z,-5.37
2022-11-22T18:42:36.990Z,-5.48
2022-11-22T18:45:04.786Z,-5.45
2022-11-22T18:47:32.204Z,-5.45
2022-11-22T18:50:00.317Z,-5.52
2022-11-22T18:52:27.626Z,-5.48
2022-11-22T18:54:56.491Z,-5.53
2022-11-22T18:57:24.821Z,-5.63
2022-11-22T18:59:52.173Z,-5.63
2022-11-22T19:02:25.927Z,-5.72
2022-11-22T19:04:56.396Z,-5.71
2022-11-22T19:07:25.351Z,-5.85
2022-11-22T19:09:53.849Z,-5.91
2022-11-22T19:12:22.722Z,-5.98
2022-11-22T19:14:50.827Z,-6.07
2022-11-22T19:17:21.855Z,-6.18
2022-11-22T19:19:52.025Z,-6.17
2022-11-22T19:22:20.148Z,-6.16
2022-11-22T19:24:47.644Z,-6.15
2022-11-22T19:27:15.003Z,-6.13
2022-11-22T19:29:42.714Z,-6.18
2022-11-22T19:32:10.352Z,-6.13
2022-11-22T19:34:37.910Z,-6.15
2022-11-22T19:37:06.583Z,-6.15
2022-11-22T19:39:33.963Z,-6.18
2022-11-22T19:42:01.345Z,-6.30
2022-11-22T19:44:28.777Z,-6.33
2022-11-22T19:46:56.135Z,-6.39
2022-11-22T19:49:23.561Z,-6.41
2022-11-22T19:51:50.980Z,-6.51
2022-11-22T19:54:18.542Z,-6.56
2022-11-22T19:56:47.224Z,-6.52
2022-11-22T19:59:16.636Z,-6.64
2022-11-22T20:01:44.392Z,-6.70
2022-11-22T20:04:19.365Z,-6.70
2022-11-22T20:06:50.138Z,-6.84
2022-11-22T20:09:18.047Z,-6.94
2022-11-22T20:11:45.951Z,-6.96
2022-11-22T20:14:13.326Z,-7.04
2022-11-22T20:16:41.917Z,-7.04
2022-11-22T20:19:11.528Z,-7.12
2022-11-22T20:21:39.872Z,-7.09
2022-11-22T20:24:07.820Z,-7.13
2022-11-22T20:26:35.817Z,-7.14
2022-11-22T20:29:07.028Z,-7.17
2022-11-22T20:31:37.002Z,-7.25
2022-11-22T20:34:04.864Z,-7.33
2022-11-22T20:36:34.747Z,-7.32
2022-11-22T20:39:06.978Z,-7.36
2022-11-22T20:41:36.366Z,-7.18
2022-11-22T20:44:04.136Z,-7.57
2022-11-22T20:46:31.532Z,-7.49
2022-11-22T20:49:00.589Z,-7.55
2022-11-22T20:51:28.991Z,-7.54
2022-11-22T20:53:57.578Z,-7.59
2022-11-22T20:56:25.458Z,-7.65
2022-11-22T20:58:53.218Z,-7.73
2022-11-22T21:01:24.080Z,-7.70
2022-11-22T21:03:52.043Z,-7.77
2022-11-22T21:06:21.096Z,-7.81
2022-11-22T21:08:49.020Z,-7.88
2022-11-22T21:11:17.772Z,-7.86
2022-11-22T21:13:46.290Z,-7.87
2022-11-22T21:16:24.246Z,-7.87
2022-11-22T21:19:09.463Z,-7.86
2022-11-22T21:21:37.389Z,-7.96
2022-11-22T21:24:06.319Z,-7.91
2022-11-22T21:26:34.737Z,-7.94
2022-11-22T21:29:04.520Z,-7.94
2022-11-22T21:31:31.959Z,-7.89
2022-11-22T21:33:59.337Z,-7.87
2022-11-22T21:36:29.706Z,-7.81
2022-11-22T21:39:01.780Z,-7.89
2022-11-22T21:41:40.585Z,-7.90
2022-11-22T21:44:12.900Z,-7.90
2022-11-22T21:46:52.011Z,-7.94
2022-11-22T21:49:22.183Z,-7.96
2022-11-22T21:51:49.774Z,-7.90
2022-11-22T21:54:17.154Z,-7.96
2022-11-22T21:56:44.551Z,-8.00
2022-11-22T21:59:12.206Z,-8.04
2022-11-22T22:01:39.907Z,-8.10
2022-11-22T22:04:07.439Z,-8.16
2022-11-22T22:06:34.948Z,-8.28
2022-11-22T22:09:02.299Z,-8.24
2022-11-22T22:11:29.785Z,-8.26
2022-11-22T22:13:59.185Z,-8.30
2022-11-22T22:16:26.666Z,-8.42
2022-11-22T22:18:54.681Z,-8.37
2022-11-22T22:21:22.161Z,-8.45
2022-11-22T22:23:49.704Z,-8.51
2022-11-22T22:26:18.148Z,-8.52
2022-11-22T22:28:46.612Z,-8.57
2022-11-22T22:31:19.401Z,-8.66
2022-11-22T22:34:39.306Z,-8.53
2022-11-22T22:37:13.584Z,-8.67
2022-11-22T22:39:47.850Z,-8.73
2022-11-22T22:42:15.746Z,-8.93
2022-11-22T22:47:47.864Z,-8.96
2022-11-22T22:50:15.593Z,-9.03
2022-11-22T22:52:43.070Z,-9.07
2022-11-22T22:55:10.440Z,-9.17
2022-11-22T22:57:37.899Z,-9.29
2022-11-22T23:00:05.629Z,-9.30
2022-11-22T23:02:33.122Z,-9.32
2022-11-22T23:05:00.439Z,-9.36
2022-11-22T23:07:34.005Z,-9.42
2022-11-22T23:10:01.489Z,-9.44
2022-11-22T23:12:30.012Z,-9.51
2022-11-22T23:14:57.459Z,-9.53
2022-11-22T23:17:27.973Z,-9.49
2022-11-22T23:19:55.311Z,-9.65
2022-11-22T23:22:25.947Z,-9.64
2022-11-22T23:24:53.565Z,-9.67
2022-11-22T23:27:20.948Z,-9.68
2022-11-22T23:29:48.304Z,-9.75
2022-11-22T23:32:15.705Z,-9.79
2022-11-22T23:34:43.038Z,-9.84
2022-11-22T23:37:10.354Z,-10.01
2022-11-22T23:39:37.743Z,-9.99
2022-11-22T23:42:05.144Z,-10.07
2022-11-22T23:44:32.563Z,-10.19
2022-11-22T23:46:59.995Z,-10.19
2022-11-22T23:49:27.328Z,-10.22
2022-11-22T23:51:54.719Z,-10.29
2022-11-22T23:54:22.142Z,-10.31
2022-11-22T23:56:49.428Z,-10.35
2022-11-22T23:59:18.601Z,-10.39
